Boulevard, California
Current Conditions -  °F | °C
As of 5:56 AM on Thursday 29 Jan 2015 (Local Time) from KNJK Reporting Station
Overcast Overcast  
Wind Chill: 58°   Ceiling: 15000
Heat Index: 58°   Visibility: 10mi
Dew Point: 51°   Wind: 6mph
Humidity: 78%   Direction: 270°W
Pressure: 30.04"   Gusts: NA
Location:  32.66°N, 116.28°W
Report Text: KNJK 291356Z 27005KT 10SM FEW060 BKN150 OVC250 14/11 A3004 RMK AO2 SLP189 T01440106
Loading
Personal Weather Stations






























Interactive Weather Map New forecast layout! Learn more

10-Day Weather Forecast

Advertisements
Track Severe Weather on mobile